Auxvasse, Missouri
Current Conditions -  °F | °C
As of 10:54 AM on Friday 31 Oct 2014 (Local Time) from KCOU Reporting Station
Clear Clear  
Wind Chill: 30°   Ceiling: Unl
Heat Index: 40°   Visibility: 10mi
Dew Point: 21°   Wind: 20mph
Humidity: 47%   Direction: 350°N
Pressure: 30.38"   Gusts: 30mph
Location:  39.02°N, 91.9°W
Report Text: KCOU 311554Z 35017G26KT 10SM CLR 04/M06 A3038 RMK AO2 PK WND 35027/1502 SLP292 T00441061
Loading
Personal Weather Stations






























Interactive Weather Map New forecast layout! Learn more

10-Day Weather Forecast

Advertisements
Track Severe Weather on mobile